sensor_id;sensor_type;location;lat;lon;timestamp;P1;durP1;ratioP1;P2;durP2;ratioP2
46429;SDS011;32131;53.454;-6.180;2023-01-19T00:01:06;4.90;;;1.73;;
46429;SDS011;32131;53.454;-6.180;2023-01-19T00:03:34;4.35;;;2.55;;
46429;SDS011;32131;53.454;-6.180;2023-01-19T00:06:03;4.80;;;2.22;;
46429;SDS011;32131;53.454;-6.180;2023-01-19T00:11:00;3.60;;;1.73;;
46429;SDS011;32131;53.454;-6.180;2023-01-19T00:13:29;2.67;;;1.48;;
46429;SDS011;32131;53.454;-6.180;2023-01-19T00:15:59;5.10;;;2.10;;
46429;SDS011;32131;53.454;-6.180;2023-01-19T00:18:27;3.88;;;1.80;;
46429;SDS011;32131;53.454;-6.180;2023-01-19T00:20:55;3.08;;;1.73;;
46429;SDS011;32131;53.454;-6.180;2023-01-19T00:23:24;6.72;;;2.92;;
46429;SDS011;32131;53.454;-6.180;2023-01-19T00:25:53;6.73;;;2.03;;
46429;SDS011;32131;53.454;-6.180;2023-01-19T00:28:21;7.35;;;2.33;;
46429;SDS011;32131;53.454;-6.180;2023-01-19T00:30:49;3.50;;;2.20;;
46429;SDS011;32131;53.454;-6.180;2023-01-19T00:33:19;6.57;;;3.13;;
46429;SDS011;32131;53.454;-6.180;2023-01-19T00:35:49;10.95;;;2.80;;
46429;SDS011;32131;53.454;-6.180;2023-01-19T00:38:18;10.27;;;2.60;;
46429;SDS011;32131;53.454;-6.180;2023-01-19T00:40:46;7.03;;;2.80;;
46429;SDS011;32131;53.454;-6.180;2023-01-19T00:43:14;15.02;;;3.35;;
46429;SDS011;32131;53.454;-6.180;2023-01-19T00:45:43;8.43;;;2.90;;
46429;SDS011;32131;53.454;-6.180;2023-01-19T00:48:12;5.80;;;3.03;;
46429;SDS011;32131;53.454;-6.180;2023-01-19T00:50:41;12.07;;;4.63;;
46429;SDS011;32131;53.454;-6.180;2023-01-19T00:53:09;10.13;;;3.00;;
46429;SDS011;32131;53.454;-6.180;2023-01-19T00:55:37;7.13;;;3.42;;
46429;SDS011;32131;53.454;-6.180;2023-01-19T00:58:06;6.22;;;3.30;;
46429;SDS011;32131;53.454;-6.180;2023-01-19T01:00:34;10.18;;;3.67;;
46429;SDS011;32131;53.454;-6.180;2023-01-19T01:03:02;12.27;;;3.83;;
46429;SDS011;32131;53.454;-6.180;2023-01-19T01:05:30;9.80;;;3.25;;
46429;SDS011;32131;53.454;-6.180;2023-01-19T01:08:00;9.40;;;3.55;;
46429;SDS011;32131;53.454;-6.180;2023-01-19T01:10:28;11.30;;;4.20;;
46429;SDS011;32131;53.454;-6.180;2023-01-19T01:12:56;10.00;;;3.42;;
46429;SDS011;32131;53.454;-6.180;2023-01-19T01:15:44;12.63;;;3.92;;
46429;SDS011;32131;53.454;-6.180;2023-01-19T01:18:16;5.53;;;3.03;;
46429;SDS011;32131;53.454;-6.180;2023-01-19T01:20:44;6.70;;;3.65;;
46429;SDS011;32131;53.454;-6.180;2023-01-19T01:23:13;6.95;;;3.85;;
46429;SDS011;32131;53.454;-6.180;2023-01-19T01:25:42;6.32;;;3.10;;
46429;SDS011;32131;53.454;-6.180;2023-01-19T01:30:39;7.10;;;3.30;;
46429;SDS011;32131;53.454;-6.180;2023-01-19T01:33:08;11.43;;;3.33;;
46429;SDS011;32131;53.454;-6.180;2023-01-19T01:35:38;7.65;;;3.22;;
46429;SDS011;32131;53.454;-6.180;2023-01-19T01:38:07;8.07;;;2.92;;
46429;SDS011;32131;53.454;-6.180;2023-01-19T01:40:39;4.72;;;2.45;;
46429;SDS011;32131;53.454;-6.180;2023-01-19T01:43:08;9.90;;;2.88;;
46429;SDS011;32131;53.454;-6.180;2023-01-19T01:45:38;4.88;;;2.78;;
46429;SDS011;32131;53.454;-6.180;2023-01-19T01:48:08;4.82;;;2.47;;
46429;SDS011;32131;53.454;-6.180;2023-01-19T01:50:42;10.88;;;2.83;;
46429;SDS011;32131;53.454;-6.180;2023-01-19T01:53:28;4.80;;;2.65;;
46429;SDS011;32131;53.454;-6.180;2023-01-19T01:56:01;7.53;;;2.63;;
46429;SDS011;32131;53.454;-6.180;2023-01-19T01:58:34;6.63;;;2.50;;
46429;SDS011;32131;53.454;-6.180;2023-01-19T02:01:06;10.45;;;3.53;;
46429;SDS011;32131;53.454;-6.180;2023-01-19T02:03:54;10.90;;;2.75;;
46429;SDS011;32131;53.454;-6.180;2023-01-19T02:06:24;5.38;;;2.42;;
46429;SDS011;32131;53.454;-6.180;2023-01-19T02:08:53;8.65;;;2.20;;
46429;SDS011;32131;53.454;-6.180;2023-01-19T02:11:44;8.90;;;2.25;;
46429;SDS011;32131;53.454;-6.180;2023-01-19T02:14:30;8.45;;;2.53;;
46429;SDS011;32131;53.454;-6.180;2023-01-19T02:16:59;4.32;;;2.08;;
46429;SDS011;32131;53.454;-6.180;2023-01-19T02:19:29;5.20;;;1.92;;
46429;SDS011;32131;53.454;-6.180;2023-01-19T02:22:04;6.40;;;2.22;;
46429;SDS011;32131;53.454;-6.180;2023-01-19T02:24:37;4.57;;;2.38;;
46429;SDS011;32131;53.454;-6.180;2023-01-19T02:27:05;5.63;;;2.10;;
46429;SDS011;32131;53.454;-6.180;2023-01-19T02:29:35;6.20;;;2.10;;
46429;SDS011;32131;53.454;-6.180;2023-01-19T02:32:03;4.20;;;1.80;;
46429;SDS011;32131;53.454;-6.180;2023-01-19T02:34:32;7.40;;;1.70;;
46429;SDS011;32131;53.454;-6.180;2023-01-19T02:37:01;6.90;;;2.28;;
46429;SDS011;32131;53.454;-6.180;2023-01-19T02:39:33;6.50;;;2.15;;
46429;SDS011;32131;53.454;-6.180;2023-01-19T02:42:07;3.60;;;1.80;;
46429;SDS011;32131;53.454;-6.180;2023-01-19T02:44:39;5.82;;;2.30;;
46429;SDS011;32131;53.454;-6.180;2023-01-19T02:47:12;5.13;;;1.80;;
46429;SDS011;32131;53.454;-6.180;2023-01-19T02:49:41;3.47;;;1.48;;
46429;SDS011;32131;53.454;-6.180;2023-01-19T02:52:11;5.38;;;1.98;;
46429;SDS011;32131;53.454;-6.180;2023-01-19T02:54:45;3.20;;;1.30;;
46429;SDS011;32131;53.454;-6.180;2023-01-19T02:57:28;4.32;;;1.65;;
46429;SDS011;32131;53.454;-6.180;2023-01-19T03:00:06;6.22;;;2.30;;
46429;SDS011;32131;53.454;-6.180;2023-01-19T03:02:46;4.35;;;1.83;;
46429;SDS011;32131;53.454;-6.180;2023-01-19T03:05:28;6.05;;;2.20;;
46429;SDS011;32131;53.454;-6.180;2023-01-19T03:08:04;7.03;;;1.67;;
46429;SDS011;32131;53.454;-6.180;2023-01-19T03:10:42;7.88;;;1.98;;
46429;SDS011;32131;53.454;-6.180;2023-01-19T03:13:20;3.60;;;1.77;;
46429;SDS011;32131;53.454;-6.180;2023-01-19T03:15:56;6.20;;;2.30;;
46429;SDS011;32131;53.454;-6.180;2023-01-19T03:18:31;3.30;;;1.80;;
46429;SDS011;32131;53.454;-6.180;2023-01-19T03:21:03;8.05;;;1.80;;
46429;SDS011;32131;53.454;-6.180;2023-01-19T03:23:33;7.55;;;1.73;;
46429;SDS011;32131;53.454;-6.180;2023-01-19T03:26:04;4.72;;;1.83;;
46429;SDS011;32131;53.454;-6.180;2023-01-19T03:28:38;3.97;;;2.30;;
46429;SDS011;32131;53.454;-6.180;2023-01-19T03:31:09;6.55;;;2.15;;
46429;SDS011;32131;53.454;-6.180;2023-01-19T03:33:42;4.60;;;2.10;;
46429;SDS011;32131;53.454;-6.180;2023-01-19T03:36:13;4.85;;;1.90;;
46429;SDS011;32131;53.454;-6.180;2023-01-19T03:38:47;6.32;;;2.15;;
46429;SDS011;32131;53.454;-6.180;2023-01-19T03:41:18;8.88;;;1.90;;
46429;SDS011;32131;53.454;-6.180;2023-01-19T03:43:50;5.45;;;2.25;;
46429;SDS011;32131;53.454;-6.180;2023-01-19T03:46:20;7.10;;;2.70;;
46429;SDS011;32131;53.454;-6.180;2023-01-19T03:48:50;4.90;;;1.63;;
46429;SDS011;32131;53.454;-6.180;2023-01-19T03:51:18;7.47;;;1.83;;
46429;SDS011;32131;53.454;-6.180;2023-01-19T03:53:48;8.55;;;2.00;;
46429;SDS011;32131;53.454;-6.180;2023-01-19T03:56:23;6.45;;;1.65;;
46429;SDS011;32131;53.454;-6.180;2023-01-19T03:58:55;9.65;;;1.75;;
46429;SDS011;32131;53.454;-6.180;2023-01-19T04:01:24;6.18;;;2.17;;
46429;SDS011;32131;53.454;-6.180;2023-01-19T04:03:52;9.02;;;2.30;;
46429;SDS011;32131;53.454;-6.180;2023-01-19T04:06:20;4.03;;;2.25;;
46429;SDS011;32131;53.454;-6.180;2023-01-19T04:08:49;7.28;;;2.03;;
46429;SDS011;32131;53.454;-6.180;2023-01-19T04:11:18;4.88;;;1.65;;
46429;SDS011;32131;53.454;-6.180;2023-01-19T04:13:52;4.00;;;1.58;;
46429;SDS011;32131;53.454;-6.180;2023-01-19T04:16:21;4.00;;;1.70;;
46429;SDS011;32131;53.454;-6.180;2023-01-19T04:18:52;3.45;;;1.55;;
46429;SDS011;32131;53.454;-6.180;2023-01-19T04:21:21;4.28;;;1.63;;
46429;SDS011;32131;53.454;-6.180;2023-01-19T04:23:49;4.32;;;1.65;;
46429;SDS011;32131;53.454;-6.180;2023-01-19T04:26:18;12.63;;;2.22;;
46429;SDS011;32131;53.454;-6.180;2023-01-19T04:28:47;4.13;;;1.75;;
46429;SDS011;32131;53.454;-6.180;2023-01-19T04:31:15;4.93;;;1.98;;
46429;SDS011;32131;53.454;-6.180;2023-01-19T04:33:46;5.50;;;1.38;;
46429;SDS011;32131;53.454;-6.180;2023-01-19T04:36:23;4.35;;;1.65;;
46429;SDS011;32131;53.454;-6.180;2023-01-19T04:38:51;4.07;;;1.40;;
46429;SDS011;32131;53.454;-6.180;2023-01-19T04:41:19;8.85;;;1.50;;
46429;SDS011;32131;53.454;-6.180;2023-01-19T04:43:47;4.68;;;1.73;;
46429;SDS011;32131;53.454;-6.180;2023-01-19T04:46:15;6.38;;;2.25;;
46429;SDS011;32131;53.454;-6.180;2023-01-19T04:48:43;2.25;;;1.27;;
46429;SDS011;32131;53.454;-6.180;2023-01-19T04:51:13;8.00;;;1.40;;
46429;SDS011;32131;53.454;-6.180;2023-01-19T04:53:41;2.88;;;1.63;;
46429;SDS011;32131;53.454;-6.180;2023-01-19T04:56:09;5.22;;;1.70;;
46429;SDS011;32131;53.454;-6.180;2023-01-19T04:58:37;7.00;;;2.00;;
46429;SDS011;32131;53.454;-6.180;2023-01-19T05:01:06;4.72;;;2.00;;
46429;SDS011;32131;53.454;-6.180;2023-01-19T05:03:35;8.52;;;2.05;;
46429;SDS011;32131;53.454;-6.180;2023-01-19T05:06:04;4.38;;;1.80;;
46429;SDS011;32131;53.454;-6.180;2023-01-19T05:08:33;5.38;;;2.03;;
46429;SDS011;32131;53.454;-6.180;2023-01-19T05:11:01;4.32;;;1.92;;
46429;SDS011;32131;53.454;-6.180;2023-01-19T05:13:29;3.45;;;1.80;;
46429;SDS011;32131;53.454;-6.180;2023-01-19T05:15:59;5.57;;;1.90;;
46429;SDS011;32131;53.454;-6.180;2023-01-19T05:18:27;5.30;;;2.13;;
46429;SDS011;32131;53.454;-6.180;2023-01-19T05:21:01;9.07;;;2.63;;
46429;SDS011;32131;53.454;-6.180;2023-01-19T05:23:30;2.90;;;1.25;;
46429;SDS011;32131;53.454;-6.180;2023-01-19T05:25:59;4.00;;;2.05;;
46429;SDS011;32131;53.454;-6.180;2023-01-19T05:28:28;4.10;;;2.17;;
46429;SDS011;32131;53.454;-6.180;2023-01-19T05:30:57;9.68;;;2.67;;
46429;SDS011;32131;53.454;-6.180;2023-01-19T05:33:26;5.90;;;1.98;;
46429;SDS011;32131;53.454;-6.180;2023-01-19T05:35:54;4.43;;;2.03;;
46429;SDS011;32131;53.454;-6.180;2023-01-19T05:38:22;4.97;;;2.00;;
46429;SDS011;32131;53.454;-6.180;2023-01-19T05:41:01;5.25;;;2.20;;
46429;SDS011;32131;53.454;-6.180;2023-01-19T05:43:30;5.97;;;2.50;;
46429;SDS011;32131;53.454;-6.180;2023-01-19T05:45:58;3.63;;;1.60;;
46429;SDS011;32131;53.454;-6.180;2023-01-19T05:48:26;3.58;;;1.65;;
46429;SDS011;32131;53.454;-6.180;2023-01-19T05:50:57;5.35;;;1.98;;
46429;SDS011;32131;53.454;-6.180;2023-01-19T05:53:26;8.10;;;2.75;;
46429;SDS011;32131;53.454;-6.180;2023-01-19T05:55:58;4.03;;;1.80;;
46429;SDS011;32131;53.454;-6.180;2023-01-19T05:58:28;5.63;;;2.15;;
46429;SDS011;32131;53.454;-6.180;2023-01-19T06:00:56;7.28;;;1.95;;
46429;SDS011;32131;53.454;-6.180;2023-01-19T06:03:28;3.95;;;2.03;;
46429;SDS011;32131;53.454;-6.180;2023-01-19T06:05:56;5.18;;;1.55;;
46429;SDS011;32131;53.454;-6.180;2023-01-19T06:08:24;4.18;;;1.92;;
46429;SDS011;32131;53.454;-6.180;2023-01-19T06:10:52;2.97;;;1.45;;
46429;SDS011;32131;53.454;-6.180;2023-01-19T06:13:20;8.93;;;1.70;;
46429;SDS011;32131;53.454;-6.180;2023-01-19T06:15:55;7.70;;;1.60;;
46429;SDS011;32131;53.454;-6.180;2023-01-19T06:18:24;5.25;;;1.73;;
46429;SDS011;32131;53.454;-6.180;2023-01-19T06:20:52;2.90;;;1.88;;
46429;SDS011;32131;53.454;-6.180;2023-01-19T06:23:24;7.82;;;1.73;;
46429;SDS011;32131;53.454;-6.180;2023-01-19T06:25:54;8.98;;;2.08;;
46429;SDS011;32131;53.454;-6.180;2023-01-19T06:28:23;2.80;;;1.42;;
46429;SDS011;32131;53.454;-6.180;2023-01-19T06:30:52;11.35;;;2.42;;
46429;SDS011;32131;53.454;-6.180;2023-01-19T06:33:23;4.47;;;1.60;;
46429;SDS011;32131;53.454;-6.180;2023-01-19T06:35:52;5.80;;;1.83;;
46429;SDS011;32131;53.454;-6.180;2023-01-19T06:38:21;5.53;;;1.90;;
46429;SDS011;32131;53.454;-6.180;2023-01-19T06:40:52;11.20;;;3.65;;
46429;SDS011;32131;53.454;-6.180;2023-01-19T06:43:24;5.47;;;1.45;;
46429;SDS011;32131;53.454;-6.180;2023-01-19T06:45:52;2.85;;;1.48;;
46429;SDS011;32131;53.454;-6.180;2023-01-19T06:48:23;3.35;;;2.17;;
46429;SDS011;32131;53.454;-6.180;2023-01-19T06:50:51;5.60;;;2.28;;
46429;SDS011;32131;53.454;-6.180;2023-01-19T06:53:19;4.20;;;1.50;;
46429;SDS011;32131;53.454;-6.180;2023-01-19T06:55:47;6.93;;;1.70;;
46429;SDS011;32131;53.454;-6.180;2023-01-19T06:58:16;4.28;;;1.45;;
46429;SDS011;32131;53.454;-6.180;2023-01-19T07:00:44;3.67;;;1.40;;
46429;SDS011;32131;53.454;-6.180;2023-01-19T07:03:16;4.57;;;1.65;;
46429;SDS011;32131;53.454;-6.180;2023-01-19T07:05:49;8.57;;;2.20;;
46429;SDS011;32131;53.454;-6.180;2023-01-19T07:08:18;3.00;;;1.42;;
46429;SDS011;32131;53.454;-6.180;2023-01-19T07:10:48;4.68;;;1.55;;
46429;SDS011;32131;53.454;-6.180;2023-01-19T07:13:37;2.28;;;1.40;;
46429;SDS011;32131;53.454;-6.180;2023-01-19T07:16:06;5.88;;;1.88;;
46429;SDS011;32131;53.454;-6.180;2023-01-19T07:18:36;5.35;;;1.85;;
46429;SDS011;32131;53.454;-6.180;2023-01-19T07:21:06;8.50;;;2.42;;
46429;SDS011;32131;53.454;-6.180;2023-01-19T07:23:35;6.00;;;2.03;;
46429;SDS011;32131;53.454;-6.180;2023-01-19T07:26:04;8.13;;;1.80;;
46429;SDS011;32131;53.454;-6.180;2023-01-19T07:28:33;3.58;;;1.85;;
46429;SDS011;32131;53.454;-6.180;2023-01-19T07:31:03;8.80;;;1.92;;
46429;SDS011;32131;53.454;-6.180;2023-01-19T07:33:32;4.00;;;1.40;;
46429;SDS011;32131;53.454;-6.180;2023-01-19T07:36:00;9.27;;;2.00;;
46429;SDS011;32131;53.454;-6.180;2023-01-19T07:38:32;4.30;;;1.45;;
46429;SDS011;32131;53.454;-6.180;2023-01-19T07:41:02;10.27;;;1.63;;
46429;SDS011;32131;53.454;-6.180;2023-01-19T07:43:32;3.10;;;1.42;;
46429;SDS011;32131;53.454;-6.180;2023-01-19T07:46:01;5.55;;;1.92;;
46429;SDS011;32131;53.454;-6.180;2023-01-19T07:50:59;9.00;;;2.15;;
46429;SDS011;32131;53.454;-6.180;2023-01-19T07:53:27;6.97;;;2.05;;
46429;SDS011;32131;53.454;-6.180;2023-01-19T07:55:57;6.40;;;1.90;;
46429;SDS011;32131;53.454;-6.180;2023-01-19T07:58:25;7.25;;;2.10;;
46429;SDS011;32131;53.454;-6.180;2023-01-19T08:00:54;6.95;;;2.10;;
46429;SDS011;32131;53.454;-6.180;2023-01-19T08:03:22;4.28;;;1.80;;
46429;SDS011;32131;53.454;-6.180;2023-01-19T08:05:50;6.55;;;2.20;;
46429;SDS011;32131;53.454;-6.180;2023-01-19T08:08:19;6.72;;;2.05;;
46429;SDS011;32131;53.454;-6.180;2023-01-19T08:10:48;4.90;;;1.83;;
46429;SDS011;32131;53.454;-6.180;2023-01-19T08:13:18;4.57;;;2.10;;
46429;SDS011;32131;53.454;-6.180;2023-01-19T08:15:47;4.95;;;1.60;;
46429;SDS011;32131;53.454;-6.180;2023-01-19T08:18:17;7.53;;;1.98;;
46429;SDS011;32131;53.454;-6.180;2023-01-19T08:20:45;6.25;;;2.05;;
46429;SDS011;32131;53.454;-6.180;2023-01-19T08:23:14;8.30;;;2.05;;
46429;SDS011;32131;53.454;-6.180;2023-01-19T08:25:43;11.32;;;2.88;;
46429;SDS011;32131;53.454;-6.180;2023-01-19T08:28:12;5.97;;;2.47;;
46429;SDS011;32131;53.454;-6.180;2023-01-19T08:30:43;5.85;;;1.75;;
46429;SDS011;32131;53.454;-6.180;2023-01-19T08:33:19;9.15;;;2.55;;
46429;SDS011;32131;53.454;-6.180;2023-01-19T08:35:49;6.28;;;2.50;;
46429;SDS011;32131;53.454;-6.180;2023-01-19T08:38:20;6.00;;;2.05;;
46429;SDS011;32131;53.454;-6.180;2023-01-19T08:40:48;8.13;;;2.15;;
46429;SDS011;32131;53.454;-6.180;2023-01-19T08:43:16;4.80;;;1.70;;
46429;SDS011;32131;53.454;-6.180;2023-01-19T08:45:49;2.53;;;1.20;;
46429;SDS011;32131;53.454;-6.180;2023-01-19T08:48:22;7.25;;;1.88;;
46429;SDS011;32131;53.454;-6.180;2023-01-19T08:50:50;5.03;;;2.17;;
46429;SDS011;32131;53.454;-6.180;2023-01-19T08:53:20;4.93;;;1.90;;
46429;SDS011;32131;53.454;-6.180;2023-01-19T08:55:53;11.38;;;2.08;;
46429;SDS011;32131;53.454;-6.180;2023-01-19T08:58:25;3.72;;;1.83;;
46429;SDS011;32131;53.454;-6.180;2023-01-19T09:00:55;9.88;;;2.22;;
46429;SDS011;32131;53.454;-6.180;2023-01-19T09:03:34;7.60;;;2.90;;
46429;SDS011;32131;53.454;-6.180;2023-01-19T09:06:15;6.18;;;2.70;;
46429;SDS011;32131;53.454;-6.180;2023-01-19T09:11:30;9.95;;;2.10;;
46429;SDS011;32131;53.454;-6.180;2023-01-19T09:13:58;7.63;;;3.17;;
46429;SDS011;32131;53.454;-6.180;2023-01-19T09:16:28;7.90;;;2.50;;
46429;SDS011;32131;53.454;-6.180;2023-01-19T09:19:04;3.83;;;1.85;;
46429;SDS011;32131;53.454;-6.180;2023-01-19T09:21:54;6.53;;;1.77;;
46429;SDS011;32131;53.454;-6.180;2023-01-19T09:24:34;5.65;;;2.30;;
46429;SDS011;32131;53.454;-6.180;2023-01-19T09:27:27;9.45;;;2.17;;
46429;SDS011;32131;53.454;-6.180;2023-01-19T09:29:55;9.90;;;2.35;;
46429;SDS011;32131;53.454;-6.180;2023-01-19T09:32:30;5.30;;;2.83;;
46429;SDS011;32131;53.454;-6.180;2023-01-19T09:35:02;5.28;;;2.35;;
46429;SDS011;32131;53.454;-6.180;2023-01-19T09:37:44;8.93;;;2.30;;
46429;SDS011;32131;53.454;-6.180;2023-01-19T09:40:13;9.13;;;2.55;;
46429;SDS011;32131;53.454;-6.180;2023-01-19T09:42:43;7.60;;;2.40;;
46429;SDS011;32131;53.454;-6.180;2023-01-19T09:45:18;9.95;;;2.30;;
46429;SDS011;32131;53.454;-6.180;2023-01-19T09:47:54;7.43;;;2.00;;
46429;SDS011;32131;53.454;-6.180;2023-01-19T09:50:25;4.93;;;2.28;;
46429;SDS011;32131;53.454;-6.180;2023-01-19T09:52:56;5.22;;;2.03;;
46429;SDS011;32131;53.454;-6.180;2023-01-19T09:55:30;6.68;;;2.28;;
46429;SDS011;32131;53.454;-6.180;2023-01-19T09:57:58;8.13;;;2.17;;
46429;SDS011;32131;53.454;-6.180;2023-01-19T10:00:28;4.45;;;1.83;;
46429;SDS011;32131;53.454;-6.180;2023-01-19T10:03:12;6.70;;;2.50;;
46429;SDS011;32131;53.454;-6.180;2023-01-19T10:05:43;7.35;;;1.85;;
46429;SDS011;32131;53.454;-6.180;2023-01-19T10:08:17;3.15;;;1.42;;
46429;SDS011;32131;53.454;-6.180;2023-01-19T10:10:51;5.72;;;2.22;;
46429;SDS011;32131;53.454;-6.180;2023-01-19T10:13:23;4.43;;;2.22;;
46429;SDS011;32131;53.454;-6.180;2023-01-19T10:15:59;11.25;;;2.63;;
46429;SDS011;32131;53.454;-6.180;2023-01-19T10:18:42;14.07;;;2.42;;
46429;SDS011;32131;53.454;-6.180;2023-01-19T10:21:14;7.53;;;2.00;;
46429;SDS011;32131;53.454;-6.180;2023-01-19T10:23:46;4.32;;;1.85;;
46429;SDS011;32131;53.454;-6.180;2023-01-19T10:26:20;10.60;;;1.88;;
46429;SDS011;32131;53.454;-6.180;2023-01-19T10:28:52;5.88;;;1.63;;
46429;SDS011;32131;53.454;-6.180;2023-01-19T10:31:24;9.18;;;1.70;;
46429;SDS011;32131;53.454;-6.180;2023-01-19T10:33:54;7.75;;;2.00;;
46429;SDS011;32131;53.454;-6.180;2023-01-19T10:36:25;3.78;;;2.03;;
46429;SDS011;32131;53.454;-6.180;2023-01-19T10:38:55;5.70;;;1.75;;
46429;SDS011;32131;53.454;-6.180;2023-01-19T10:41:25;8.63;;;2.40;;
46429;SDS011;32131;53.454;-6.180;2023-01-19T10:43:59;7.60;;;2.45;;
46429;SDS011;32131;53.454;-6.180;2023-01-19T10:46:31;7.05;;;2.30;;
46429;SDS011;32131;53.454;-6.180;2023-01-19T10:49:05;6.68;;;2.03;;
46429;SDS011;32131;53.454;-6.180;2023-01-19T10:54:13;7.57;;;1.85;;
46429;SDS011;32131;53.454;-6.180;2023-01-19T10:56:42;10.05;;;1.98;;
46429;SDS011;32131;53.454;-6.180;2023-01-19T10:59:30;10.38;;;4.13;;
46429;SDS011;32131;53.454;-6.180;2023-01-19T11:02:01;11.13;;;2.35;;
46429;SDS011;32131;53.454;-6.180;2023-01-19T11:04:42;7.43;;;2.25;;
46429;SDS011;32131;53.454;-6.180;2023-01-19T11:07:17;5.15;;;2.03;;
46429;SDS011;32131;53.454;-6.180;2023-01-19T11:09:47;7.03;;;2.00;;
46429;SDS011;32131;53.454;-6.180;2023-01-19T11:12:17;5.20;;;2.08;;
46429;SDS011;32131;53.454;-6.180;2023-01-19T11:14:47;10.43;;;2.40;;
46429;SDS011;32131;53.454;-6.180;2023-01-19T11:17:21;3.35;;;2.22;;
46429;SDS011;32131;53.454;-6.180;2023-01-19T11:19:56;5.35;;;2.05;;
46429;SDS011;32131;53.454;-6.180;2023-01-19T11:22:27;5.70;;;1.77;;
46429;SDS011;32131;53.454;-6.180;2023-01-19T11:24:59;6.50;;;2.25;;
46429;SDS011;32131;53.454;-6.180;2023-01-19T11:27:30;7.15;;;1.95;;
46429;SDS011;32131;53.454;-6.180;2023-01-19T11:30:02;3.78;;;1.60;;
46429;SDS011;32131;53.454;-6.180;2023-01-19T11:32:35;8.55;;;1.65;;
46429;SDS011;32131;53.454;-6.180;2023-01-19T11:38:10;8.27;;;1.85;;
46429;SDS011;32131;53.454;-6.180;2023-01-19T11:40:49;6.25;;;2.13;;
46429;SDS011;32131;53.454;-6.180;2023-01-19T11:43:20;7.80;;;2.72;;
46429;SDS011;32131;53.454;-6.180;2023-01-19T11:45:50;5.18;;;2.42;;
46429;SDS011;32131;53.454;-6.180;2023-01-19T11:48:21;7.03;;;2.00;;
46429;SDS011;32131;53.454;-6.180;2023-01-19T11:50:55;8.73;;;3.42;;
46429;SDS011;32131;53.454;-6.180;2023-01-19T11:53:27;6.05;;;2.38;;
46429;SDS011;32131;53.454;-6.180;2023-01-19T11:56:00;3.50;;;1.45;;
46429;SDS011;32131;53.454;-6.180;2023-01-19T11:58:31;6.63;;;1.85;;
46429;SDS011;32131;53.454;-6.180;2023-01-19T12:01:05;7.28;;;1.73;;
46429;SDS011;32131;53.454;-6.180;2023-01-19T12:03:40;4.05;;;1.30;;
46429;SDS011;32131;53.454;-6.180;2023-01-19T12:06:13;3.03;;;1.10;;
46429;SDS011;32131;53.454;-6.180;2023-01-19T12:08:46;5.90;;;1.88;;
46429;SDS011;32131;53.454;-6.180;2023-01-19T12:11:17;5.65;;;1.65;;
46429;SDS011;32131;53.454;-6.180;2023-01-19T12:13:49;5.13;;;1.40;;
46429;SDS011;32131;53.454;-6.180;2023-01-19T12:16:20;3.97;;;1.00;;
46429;SDS011;32131;53.454;-6.180;2023-01-19T12:18:51;5.93;;;1.50;;
46429;SDS011;32131;53.454;-6.180;2023-01-19T12:21:24;4.90;;;1.23;;
46429;SDS011;32131;53.454;-6.180;2023-01-19T12:23:54;2.70;;;1.27;;
46429;SDS011;32131;53.454;-6.180;2023-01-19T12:26:33;6.50;;;1.27;;
46429;SDS011;32131;53.454;-6.180;2023-01-19T12:29:04;4.78;;;1.20;;
46429;SDS011;32131;53.454;-6.180;2023-01-19T12:31:38;2.25;;;1.10;;
46429;SDS011;32131;53.454;-6.180;2023-01-19T12:40:22;2.60;;;1.05;;
46429;SDS011;32131;53.454;-6.180;2023-01-19T12:42:55;1.90;;;0.95;;
46429;SDS011;32131;53.454;-6.180;2023-01-19T12:45:28;4.07;;;1.42;;
46429;SDS011;32131;53.454;-6.180;2023-01-19T12:47:59;5.63;;;1.17;;
46429;SDS011;32131;53.454;-6.180;2023-01-19T12:50:32;2.03;;;0.82;;
46429;SDS011;32131;53.454;-6.180;2023-01-19T12:53:14;3.60;;;1.02;;
46429;SDS011;32131;53.454;-6.180;2023-01-19T12:55:45;3.35;;;1.02;;
46429;SDS011;32131;53.454;-6.180;2023-01-19T12:58:25;1.88;;;0.85;;
46429;SDS011;32131;53.454;-6.180;2023-01-19T13:03:43;3.40;;;1.13;;
46429;SDS011;32131;53.454;-6.180;2023-01-19T13:09:31;4.47;;;0.70;;
46429;SDS011;32131;53.454;-6.180;2023-01-19T13:12:20;3.92;;;1.02;;
46429;SDS011;32131;53.454;-6.180;2023-01-19T13:14:50;4.28;;;1.30;;
46429;SDS011;32131;53.454;-6.180;2023-01-19T13:17:43;3.65;;;1.00;;
46429;SDS011;32131;53.454;-6.180;2023-01-19T13:20:18;5.60;;;1.23;;
46429;SDS011;32131;53.454;-6.180;2023-01-19T13:25:49;1.92;;;1.10;;
46429;SDS011;32131;53.454;-6.180;2023-01-19T13:28:27;2.88;;;1.27;;
46429;SDS011;32131;53.454;-6.180;2023-01-19T13:30:59;5.67;;;1.20;;
46429;SDS011;32131;53.454;-6.180;2023-01-19T13:33:34;4.43;;;1.60;;
46429;SDS011;32131;53.454;-6.180;2023-01-19T13:36:12;7.22;;;1.75;;
46429;SDS011;32131;53.454;-6.180;2023-01-19T13:38:46;4.65;;;1.58;;
46429;SDS011;32131;53.454;-6.180;2023-01-19T13:41:17;3.50;;;1.33;;
46429;SDS011;32131;53.454;-6.180;2023-01-19T13:43:51;5.88;;;1.33;;
46429;SDS011;32131;53.454;-6.180;2023-01-19T13:46:25;3.38;;;1.10;;
46429;SDS011;32131;53.454;-6.180;2023-01-19T13:48:55;5.13;;;1.10;;
46429;SDS011;32131;53.454;-6.180;2023-01-19T13:51:26;7.35;;;1.20;;
46429;SDS011;32131;53.454;-6.180;2023-01-19T13:53:55;6.13;;;1.80;;
46429;SDS011;32131;53.454;-6.180;2023-01-19T13:56:25;2.30;;;1.20;;
46429;SDS011;32131;53.454;-6.180;2023-01-19T14:01:32;6.00;;;1.05;;
46429;SDS011;32131;53.454;-6.180;2023-01-19T14:04:01;4.32;;;0.90;;
46429;SDS011;32131;53.454;-6.180;2023-01-19T14:06:38;2.78;;;0.85;;
46429;SDS011;32131;53.454;-6.180;2023-01-19T14:09:13;4.45;;;1.00;;
46429;SDS011;32131;53.454;-6.180;2023-01-19T14:11:45;2.17;;;1.10;;
46429;SDS011;32131;53.454;-6.180;2023-01-19T14:14:24;2.10;;;0.82;;
46429;SDS011;32131;53.454;-6.180;2023-01-19T14:19:23;3.28;;;1.00;;
46429;SDS011;32131;53.454;-6.180;2023-01-19T14:21:58;3.65;;;1.23;;
46429;SDS011;32131;53.454;-6.180;2023-01-19T14:24:28;2.90;;;1.15;;
46429;SDS011;32131;53.454;-6.180;2023-01-19T14:27:15;1.95;;;0.82;;
46429;SDS011;32131;53.454;-6.180;2023-01-19T14:29:46;5.68;;;0.90;;
46429;SDS011;32131;53.454;-6.180;2023-01-19T14:32:16;3.97;;;0.93;;
46429;SDS011;32131;53.454;-6.180;2023-01-19T14:37:16;1.02;;;0.60;;
46429;SDS011;32131;53.454;-6.180;2023-01-19T14:39:47;2.83;;;0.90;;
46429;SDS011;32131;53.454;-6.180;2023-01-19T14:42:26;3.58;;;1.10;;
46429;SDS011;32131;53.454;-6.180;2023-01-19T14:44:57;2.10;;;1.05;;
46429;SDS011;32131;53.454;-6.180;2023-01-19T14:47:33;2.30;;;0.93;;
46429;SDS011;32131;53.454;-6.180;2023-01-19T14:50:06;4.22;;;0.93;;
46429;SDS011;32131;53.454;-6.180;2023-01-19T14:52:49;2.92;;;1.00;;
46429;SDS011;32131;53.454;-6.180;2023-01-19T14:55:22;2.78;;;1.25;;
46429;SDS011;32131;53.454;-6.180;2023-01-19T14:57:54;2.22;;;1.35;;
46429;SDS011;32131;53.454;-6.180;2023-01-19T15:00:22;2.67;;;1.00;;
46429;SDS011;32131;53.454;-6.180;2023-01-19T15:02:52;2.00;;;0.95;;
46429;SDS011;32131;53.454;-6.180;2023-01-19T15:05:20;3.33;;;1.48;;
46429;SDS011;32131;53.454;-6.180;2023-01-19T15:07:49;3.40;;;1.40;;
46429;SDS011;32131;53.454;-6.180;2023-01-19T15:10:33;2.78;;;1.00;;
46429;SDS011;32131;53.454;-6.180;2023-01-19T15:13:04;3.42;;;1.33;;
46429;SDS011;32131;53.454;-6.180;2023-01-19T15:15:33;2.03;;;1.20;;
46429;SDS011;32131;53.454;-6.180;2023-01-19T15:18:02;2.03;;;0.95;;
46429;SDS011;32131;53.454;-6.180;2023-01-19T15:20:33;6.47;;;1.77;;
46429;SDS011;32131;53.454;-6.180;2023-01-19T15:23:01;3.22;;;1.08;;
46429;SDS011;32131;53.454;-6.180;2023-01-19T15:25:30;2.08;;;0.90;;
46429;SDS011;32131;53.454;-6.180;2023-01-19T15:27:58;2.05;;;1.00;;
46429;SDS011;32131;53.454;-6.180;2023-01-19T15:30:28;2.42;;;1.00;;
46429;SDS011;32131;53.454;-6.180;2023-01-19T15:32:58;3.03;;;1.08;;
46429;SDS011;32131;53.454;-6.180;2023-01-19T15:35:27;2.45;;;1.00;;
46429;SDS011;32131;53.454;-6.180;2023-01-19T15:37:55;3.65;;;1.15;;